Time;durP1;ratioP1;P1;durP2;ratioP2;P2;SDS_P1;SDS_P2;PMS_P1;PMS_P2;Temp;Humidity;BMP_temperature;BMP_pressure;BME280_temperature;BME280_humidity;BME280_pressure;Samples;Min_cycle;Max_cycle;Signal;HPM_P1;HPM_P2
2022/07/31 00:00:01;;;;;;;0.2;0.2;;;;;;;22.4;100.0;101480;;;;
2022/07/31 00:01:00;;;;;;;0.2;0.2;;;;;;;22.4;100.0;101480;;;;
2022/07/31 00:02:00;;;;;;;0.2;0.2;;;;;;;22.2;100.0;101480;;;;
2022/07/31 00:03:00;;;;;;;0.2;0.2;;;;;;;22.2;100.0;101480;;;;
2022/07/31 00:04:00;;;;;;;0.2;0.2;;;;;;;22.2;100.0;101480;;;;
2022/07/31 00:05:00;;;;;;;0.2;0.2;;;;;;;22.2;100.0;101480;;;;
2022/07/31 00:06:00;;;;;;;0.2;0.2;;;;;;;22.2;100.0;101470;;;;
2022/07/31 00:07:00;;;;;;;0.2;0.2;;;;;;;22.2;100.0;101470;;;;
2022/07/31 00:08:01;;;;;;;0.2;0.2;;;;;;;22.3;100.0;101470;;;;
2022/07/31 00:09:00;;;;;;;0.2;0.2;;;;;;;22.3;100.0;101470;;;;
2022/07/31 00:10:00;;;;;;;0.2;0.2;;;;;;;22.2;100.0;101480;;;;
2022/07/31 00:11:00;;;;;;;0.2;0.2;;;;;;;22.2;100.0;101480;;;;
2022/07/31 00:12:00;;;;;;;0.2;0.2;;;;;;;22.3;100.0;101470;;;;
2022/07/31 00:13:00;;;;;;;0.2;0.2;;;;;;;22.3;100.0;101470;;;;
2022/07/31 00:14:00;;;;;;;0.2;0.2;;;;;;;22.3;100.0;101470;;;;
2022/07/31 00:15:01;;;;;;;0.2;0.2;;;;;;;22.3;100.0;101470;;;;
2022/07/31 00:16:00;;;;;;;0.2;0.2;;;;;;;22.2;100.0;101470;;;;
2022/07/31 00:17:01;;;;;;;0.2;0.2;;;;;;;22.2;100.0;101470;;;;
2022/07/31 00:18:00;;;;;;;0.2;0.2;;;;;;;22.3;100.0;101470;;;;
2022/07/31 00:19:00;;;;;;;0.8;0.8;;;;;;;22.3;100.0;101470;;;;
2022/07/31 00:20:00;;;;;;;0.8;0.8;;;;;;;22.4;100.0;101470;;;;
2022/07/31 00:21:01;;;;;;;0.8;0.8;;;;;;;22.4;100.0;101470;;;;
2022/07/31 00:22:00;;;;;;;0.8;0.8;;;;;;;22.4;100.0;101460;;;;
2022/07/31 00:23:00;;;;;;;0.8;0.8;;;;;;;22.4;100.0;101460;;;;
2022/07/31 00:24:00;;;;;;;0.8;0.8;;;;;;;22.4;100.0;101460;;;;
2022/07/31 00:25:00;;;;;;;0.8;0.8;;;;;;;22.4;100.0;101460;;;;
2022/07/31 00:26:00;;;;;;;0.8;0.8;;;;;;;22.4;100.0;101460;;;;
2022/07/31 00:27:00;;;;;;;0.8;0.8;;;;;;;22.4;100.0;101460;;;;
2022/07/31 00:28:00;;;;;;;0.8;0.8;;;;;;;22.4;100.0;101460;;;;
2022/07/31 00:29:00;;;;;;;0.8;0.8;;;;;;;22.4;100.0;101460;;;;
2022/07/31 00:30:00;;;;;;;0.8;0.8;;;;;;;22.4;100.0;101460;;;;
2022/07/31 00:31:00;;;;;;;0.8;0.8;;;;;;;22.4;100.0;101460;;;;
2022/07/31 00:32:00;;;;;;;0.8;0.8;;;;;;;22.4;100.0;101460;;;;
2022/07/31 00:33:00;;;;;;;0.8;0.8;;;;;;;22.4;100.0;101460;;;;
2022/07/31 00:34:00;;;;;;;0.8;0.8;;;;;;;22.4;100.0;101460;;;;
2022/07/31 00:35:00;;;;;;;0.8;0.8;;;;;;;22.4;100.0;101460;;;;
2022/07/31 00:36:00;;;;;;;0.8;0.8;;;;;;;22.4;100.0;101460;;;;
2022/07/31 00:37:00;;;;;;;0.8;0.8;;;;;;;22.4;100.0;101460;;;;
2022/07/31 00:38:10;;;;;;;0.8;0.8;;;;;;;22.3;100.0;101450;;;;
2022/07/31 00:39:00;;;;;;;0.3;0.3;;;;;;;22.3;100.0;101450;;;;
2022/07/31 00:40:00;;;;;;;0.3;0.3;;;;;;;22.4;100.0;101450;;;;
2022/07/31 00:41:01;;;;;;;0.3;0.3;;;;;;;22.4;100.0;101450;;;;
2022/07/31 00:42:00;;;;;;;0.3;0.3;;;;;;;22.4;100.0;101440;;;;
2022/07/31 00:43:00;;;;;;;0.3;0.3;;;;;;;22.4;100.0;101440;;;;
2022/07/31 00:44:00;;;;;;;0.3;0.3;;;;;;;22.4;100.0;101440;;;;
2022/07/31 00:45:00;;;;;;;0.3;0.3;;;;;;;22.4;100.0;101440;;;;
2022/07/31 00:46:00;;;;;;;0.3;0.3;;;;;;;22.3;100.0;101440;;;;
2022/07/31 00:47:01;;;;;;;0.3;0.3;;;;;;;22.3;100.0;101440;;;;
2022/07/31 00:48:02;;;;;;;0.3;0.3;;;;;;;22.3;100.0;101440;;;;
2022/07/31 00:49:00;;;;;;;0.3;0.3;;;;;;;22.3;100.0;101440;;;;
2022/07/31 00:50:00;;;;;;;0.3;0.3;;;;;;;22.3;100.0;101440;;;;
2022/07/31 00:51:00;;;;;;;0.3;0.3;;;;;;;22.3;100.0;101440;;;;
2022/07/31 00:52:00;;;;;;;0.3;0.3;;;;;;;22.2;100.0;101440;;;;
2022/07/31 00:53:00;;;;;;;0.3;0.3;;;;;;;22.2;100.0;101440;;;;
2022/07/31 00:54:00;;;;;;;0.3;0.3;;;;;;;22.1;100.0;101440;;;;
2022/07/31 00:55:00;;;;;;;0.3;0.3;;;;;;;22.1;100.0;101440;;;;
2022/07/31 00:56:00;;;;;;;0.3;0.3;;;;;;;22.1;100.0;101440;;;;
2022/07/31 00:57:01;;;;;;;0.3;0.3;;;;;;;22.1;100.0;101440;;;;
2022/07/31 00:58:00;;;;;;;0.3;0.3;;;;;;;22.2;100.0;101440;;;;
2022/07/31 00:59:00;;;;;;;0.1;0.1;;;;;;;22.2;100.0;101440;;;;
2022/07/31 01:00:00;;;;;;;0.1;0.1;;;;;;;22.2;100.0;101440;;;;
2022/07/31 01:01:00;;;;;;;0.1;0.1;;;;;;;22.2;100.0;101440;;;;
2022/07/31 01:02:00;;;;;;;0.1;0.1;;;;;;;22.1;100.0;101430;;;;
2022/07/31 01:03:00;;;;;;;0.1;0.1;;;;;;;22.1;100.0;101430;;;;
2022/07/31 01:04:00;;;;;;;0.1;0.1;;;;;;;22.2;100.0;101430;;;;
2022/07/31 01:05:00;;;;;;;0.1;0.1;;;;;;;22.2;100.0;101430;;;;
2022/07/31 01:06:00;;;;;;;0.1;0.1;;;;;;;22.1;100.0;101430;;;;
2022/07/31 01:07:01;;;;;;;0.1;0.1;;;;;;;22.1;100.0;101430;;;;
2022/07/31 01:08:00;;;;;;;0.1;0.1;;;;;;;22.1;100.0;101420;;;;
2022/07/31 01:09:00;;;;;;;0.1;0.1;;;;;;;22.1;100.0;101420;;;;
2022/07/31 01:10:04;;;;;;;0.1;0.1;;;;;;;22.1;100.0;101420;;;;
2022/07/31 01:11:05;;;;;;;0.1;0.1;;;;;;;22.1;100.0;101420;;;;
2022/07/31 01:12:00;;;;;;;0.1;0.1;;;;;;;22.1;100.0;101420;;;;
2022/07/31 01:13:04;;;;;;;0.1;0.1;;;;;;;22.1;100.0;101420;;;;
2022/07/31 01:14:03;;;;;;;0.1;0.1;;;;;;;22.1;100.0;101420;;;;
2022/07/31 01:15:02;;;;;;;0.1;0.1;;;;;;;22.1;100.0;101420;;;;
2022/07/31 01:16:02;;;;;;;0.1;0.1;;;;;;;22.1;100.0;101420;;;;
2022/07/31 01:17:03;;;;;;;0.1;0.1;;;;;;;22.1;100.0;101420;;;;
2022/07/31 01:18:00;;;;;;;0.1;0.1;;;;;;;22.1;100.0;101410;;;;
2022/07/31 01:19:04;;;;;;;2.4;1.8;;;;;;;22.1;100.0;101410;;;;
2022/07/31 01:20:00;;;;;;;2.4;1.8;;;;;;;22.1;100.0;101420;;;;
2022/07/31 01:21:03;;;;;;;2.4;1.8;;;;;;;22.1;100.0;101420;;;;
2022/07/31 01:22:20;;;;;;;2.4;1.8;;;;;;;22.0;100.0;101420;;;;
2022/07/31 01:23:10;;;;;;;2.4;1.8;;;;;;;22.0;100.0;101420;;;;
2022/07/31 01:24:00;;;;;;;2.4;1.8;;;;;;;22.0;100.0;101420;;;;
2022/07/31 01:25:00;;;;;;;2.4;1.8;;;;;;;22.0;100.0;101420;;;;
2022/07/31 01:26:01;;;;;;;2.4;1.8;;;;;;;21.9;100.0;101420;;;;
2022/07/31 01:27:03;;;;;;;2.4;1.8;;;;;;;21.9;100.0;101420;;;;
2022/07/31 01:28:10;;;;;;;2.4;1.8;;;;;;;21.9;100.0;101420;;;;
2022/07/31 01:29:10;;;;;;;2.4;1.8;;;;;;;21.9;100.0;101420;;;;
2022/07/31 01:30:02;;;;;;;2.4;1.8;;;;;;;22.0;100.0;101410;;;;
2022/07/31 01:31:15;;;;;;;2.4;1.8;;;;;;;22.0;100.0;101410;;;;
2022/07/31 01:32:02;;;;;;;2.4;1.8;;;;;;;22.0;100.0;101410;;;;
2022/07/31 01:33:03;;;;;;;2.4;1.8;;;;;;;22.0;100.0;101410;;;;
2022/07/31 01:34:10;;;;;;;2.4;1.8;;;;;;;21.9;100.0;101410;;;;
2022/07/31 01:35:03;;;;;;;2.4;1.8;;;;;;;21.9;100.0;101410;;;;
2022/07/31 01:36:04;;;;;;;2.4;1.8;;;;;;;22.0;100.0;101410;;;;
2022/07/31 01:37:05;;;;;;;2.4;1.8;;;;;;;22.0;100.0;101410;;;;
2022/07/31 01:38:05;;;;;;;2.4;1.8;;;;;;;22.0;100.0;101410;;;;
2022/07/31 01:39:00;;;;;;;0.4;0.4;;;;;;;22.0;100.0;101410;;;;
2022/07/31 01:40:02;;;;;;;0.4;0.4;;;;;;;22.0;100.0;101410;;;;
2022/07/31 01:41:01;;;;;;;0.4;0.4;;;;;;;22.0;100.0;101410;;;;
2022/07/31 01:42:02;;;;;;;0.4;0.4;;;;;;;21.9;100.0;101410;;;;
2022/07/31 01:43:02;;;;;;;0.4;0.4;;;;;;;21.9;100.0;101410;;;;
2022/07/31 01:44:02;;;;;;;0.4;0.4;;;;;;;21.9;100.0;101410;;;;
2022/07/31 01:45:02;;;;;;;0.4;0.4;;;;;;;21.9;100.0;101410;;;;
2022/07/31 01:46:01;;;;;;;0.4;0.4;;;;;;;21.9;100.0;101410;;;;
2022/07/31 01:47:02;;;;;;;0.4;0.4;;;;;;;21.9;100.0;101410;;;;
2022/07/31 01:48:01;;;;;;;0.4;0.4;;;;;;;21.9;100.0;101410;;;;
2022/07/31 01:49:01;;;;;;;0.4;0.4;;;;;;;21.9;100.0;101410;;;;
2022/07/31 01:50:00;;;;;;;0.4;0.4;;;;;;;21.9;100.0;101410;;;;
2022/07/31 01:51:01;;;;;;;0.4;0.4;;;;;;;21.9;100.0;101410;;;;
2022/07/31 01:52:05;;;;;;;0.4;0.4;;;;;;;21.8;100.0;101410;;;;
2022/07/31 01:53:00;;;;;;;0.4;0.4;;;;;;;21.8;100.0;101410;;;;
2022/07/31 01:54:00;;;;;;;0.4;0.4;;;;;;;21.8;100.0;101410;;;;
2022/07/31 01:55:01;;;;;;;0.4;0.4;;;;;;;21.8;100.0;101410;;;;
2022/07/31 01:56:04;;;;;;;0.4;0.4;;;;;;;21.7;100.0;101400;;;;
2022/07/31 01:57:01;;;;;;;0.4;0.4;;;;;;;21.7;100.0;101400;;;;
2022/07/31 01:58:01;;;;;;;0.4;0.4;;;;;;;21.6;100.0;101400;;;;
2022/07/31 01:59:01;;;;;;;0.2;0.2;;;;;;;21.6;100.0;101400;;;;
2022/07/31 02:00:01;;;;;;;0.2;0.2;;;;;;;21.6;100.0;101410;;;;
2022/07/31 02:01:03;;;;;;;0.2;0.2;;;;;;;21.6;100.0;101410;;;;
2022/07/31 02:02:03;;;;;;;0.2;0.2;;;;;;;21.5;100.0;101410;;;;
2022/07/31 02:03:10;;;;;;;0.2;0.2;;;;;;;21.5;100.0;101410;;;;
2022/07/31 02:04:01;;;;;;;0.2;0.2;;;;;;;21.5;100.0;101410;;;;
2022/07/31 02:05:01;;;;;;;0.2;0.2;;;;;;;21.5;100.0;101410;;;;
2022/07/31 02:06:03;;;;;;;0.2;0.2;;;;;;;21.4;100.0;101420;;;;
2022/07/31 02:07:03;;;;;;;0.2;0.2;;;;;;;21.4;100.0;101420;;;;
2022/07/31 02:08:00;;;;;;;0.2;0.2;;;;;;;21.3;100.0;101420;;;;
2022/07/31 02:09:01;;;;;;;0.2;0.2;;;;;;;21.3;100.0;101420;;;;
2022/07/31 02:10:00;;;;;;;0.2;0.2;;;;;;;21.3;100.0;101420;;;;
2022/07/31 02:11:00;;;;;;;0.2;0.2;;;;;;;21.3;100.0;101420;;;;
2022/07/31 02:12:01;;;;;;;0.2;0.2;;;;;;;21.3;100.0;101420;;;;
2022/07/31 02:13:01;;;;;;;0.2;0.2;;;;;;;21.3;100.0;101420;;;;
2022/07/31 02:14:01;;;;;;;0.2;0.2;;;;;;;21.2;100.0;101420;;;;
2022/07/31 02:15:01;;;;;;;0.2;0.2;;;;;;;21.2;100.0;101420;;;;
2022/07/31 02:16:04;;;;;;;0.2;0.2;;;;;;;21.2;100.0;101420;;;;
2022/07/31 02:17:01;;;;;;;0.2;0.2;;;;;;;21.2;100.0;101420;;;;
2022/07/31 02:18:00;;;;;;;0.2;0.2;;;;;;;21.2;100.0;101420;;;;
2022/07/31 02:19:00;;;;;;;0.2;0.2;;;;;;;21.2;100.0;101420;;;;
2022/07/31 02:20:01;;;;;;;0.2;0.2;;;;;;;21.2;100.0;101410;;;;
2022/07/31 02:21:00;;;;;;;0.2;0.2;;;;;;;21.2;100.0;101410;;;;
2022/07/31 02:22:00;;;;;;;0.2;0.2;;;;;;;21.4;100.0;101420;;;;
2022/07/31 02:23:01;;;;;;;0.2;0.2;;;;;;;21.4;100.0;101420;;;;
2022/07/31 02:24:00;;;;;;;0.2;0.2;;;;;;;21.3;100.0;101410;;;;
2022/07/31 02:25:00;;;;;;;0.2;0.2;;;;;;;21.3;100.0;101410;;;;
2022/07/31 02:26:01;;;;;;;0.2;0.2;;;;;;;21.2;100.0;101410;;;;
2022/07/31 02:27:01;;;;;;;0.2;0.2;;;;;;;21.2;100.0;101410;;;;
2022/07/31 02:28:02;;;;;;;0.2;0.2;;;;;;;21.2;100.0;101410;;;;
2022/07/31 02:29:01;;;;;;;0.2;0.2;;;;;;;21.2;100.0;101410;;;;
2022/07/31 02:30:01;;;;;;;0.2;0.2;;;;;;;21.2;100.0;101400;;;;
2022/07/31 02:31:00;;;;;;;0.2;0.2;;;;;;;21.2;100.0;101400;;;;
2022/07/31 02:32:11;;;;;;;0.2;0.2;;;;;;;21.2;100.0;101410;;;;
2022/07/31 02:33:01;;;;;;;0.2;0.2;;;;;;;21.2;100.0;101410;;;;
2022/07/31 02:34:00;;;;;;;0.2;0.2;;;;;;;21.1;100.0;101410;;;;
2022/07/31 02:35:01;;;;;;;0.2;0.2;;;;;;;21.1;100.0;101410;;;;
2022/07/31 02:36:01;;;;;;;0.2;0.2;;;;;;;21.2;100.0;101400;;;;
2022/07/31 02:37:00;;;;;;;0.2;0.2;;;;;;;21.2;100.0;101400;;;;
2022/07/31 02:38:01;;;;;;;0.2;0.2;;;;;;;21.2;100.0;101400;;;;
2022/07/31 02:39:01;;;;;;;0.3;0.3;;;;;;;21.2;100.0;101400;;;;
2022/07/31 02:40:01;;;;;;;0.3;0.3;;;;;;;21.2;100.0;101400;;;;
2022/07/31 02:41:01;;;;;;;0.3;0.3;;;;;;;21.2;100.0;101400;;;;
2022/07/31 02:42:01;;;;;;;0.3;0.3;;;;;;;21.1;100.0;101400;;;;
2022/07/31 02:43:00;;;;;;;0.3;0.3;;;;;;;21.1;100.0;101400;;;;
2022/07/31 02:44:00;;;;;;;0.3;0.3;;;;;;;21.0;100.0;101410;;;;
2022/07/31 02:45:01;;;;;;;0.3;0.3;;;;;;;21.0;100.0;101410;;;;
2022/07/31 02:46:00;;;;;;;0.3;0.3;;;;;;;21.0;100.0;101410;;;;
2022/07/31 02:47:03;;;;;;;0.3;0.3;;;;;;;21.0;100.0;101410;;;;
2022/07/31 02:48:00;;;;;;;0.3;0.3;;;;;;;21.0;100.0;101420;;;;
2022/07/31 02:49:01;;;;;;;0.3;0.3;;;;;;;21.0;100.0;101420;;;;
2022/07/31 02:50:01;;;;;;;0.3;0.3;;;;;;;21.0;100.0;101420;;;;
2022/07/31 02:51:00;;;;;;;0.3;0.3;;;;;;;21.0;100.0;101420;;;;
2022/07/31 02:52:00;;;;;;;0.3;0.3;;;;;;;21.1;100.0;101420;;;;
2022/07/31 02:53:00;;;;;;;0.3;0.3;;;;;;;21.1;100.0;101420;;;;
2022/07/31 02:54:00;;;;;;;0.3;0.3;;;;;;;21.1;100.0;101420;;;;
2022/07/31 02:55:00;;;;;;;0.3;0.3;;;;;;;21.1;100.0;101420;;;;
2022/07/31 02:56:03;;;;;;;0.3;0.3;;;;;;;21.0;100.0;101420;;;;
2022/07/31 02:57:01;;;;;;;0.3;0.3;;;;;;;21.0;100.0;101420;;;;
2022/07/31 02:58:01;;;;;;;0.3;0.3;;;;;;;21.0;100.0;101410;;;;
2022/07/31 02:59:00;;;;;;;0.4;0.4;;;;;;;21.0;100.0;101410;;;;
2022/07/31 03:00:00;;;;;;;0.4;0.4;;;;;;;21.0;100.0;101410;;;;
2022/07/31 03:01:01;;;;;;;0.4;0.4;;;;;;;21.0;100.0;101410;;;;
2022/07/31 03:02:00;;;;;;;0.4;0.4;;;;;;;20.9;100.0;101410;;;;
2022/07/31 03:03:00;;;;;;;0.4;0.4;;;;;;;20.9;100.0;101410;;;;
2022/07/31 03:04:00;;;;;;;0.4;0.4;;;;;;;20.9;100.0;101400;;;;
2022/07/31 03:05:00;;;;;;;0.4;0.4;;;;;;;20.9;100.0;101400;;;;
2022/07/31 03:06:00;;;;;;;0.4;0.4;;;;;;;20.9;100.0;101400;;;;
2022/07/31 03:07:00;;;;;;;0.4;0.4;;;;;;;20.9;100.0;101400;;;;
2022/07/31 03:08:00;;;;;;;0.4;0.4;;;;;;;20.9;100.0;101400;;;;
2022/07/31 03:09:00;;;;;;;0.4;0.4;;;;;;;20.9;100.0;101400;;;;
2022/07/31 03:10:00;;;;;;;0.4;0.4;;;;;;;20.9;100.0;101400;;;;
2022/07/31 03:11:00;;;;;;;0.4;0.4;;;;;;;20.9;100.0;101400;;;;
2022/07/31 03:12:05;;;;;;;0.4;0.4;;;;;;;20.9;100.0;101400;;;;
2022/07/31 03:13:01;;;;;;;0.4;0.4;;;;;;;20.9;100.0;101400;;;;
2022/07/31 03:14:00;;;;;;;0.4;0.4;;;;;;;20.8;100.0;101400;;;;
2022/07/31 03:15:01;;;;;;;0.4;0.4;;;;;;;20.8;100.0;101400;;;;
2022/07/31 03:16:00;;;;;;;0.4;0.4;;;;;;;20.9;100.0;101400;;;;
2022/07/31 03:17:00;;;;;;;0.4;0.4;;;;;;;20.9;100.0;101400;;;;
2022/07/31 03:18:00;;;;;;;0.4;0.4;;;;;;;20.8;100.0;101390;;;;
2022/07/31 03:19:01;;;;;;;0.3;0.3;;;;;;;20.8;100.0;101390;;;;
2022/07/31 03:20:00;;;;;;;0.3;0.3;;;;;;;20.9;100.0;101400;;;;
2022/07/31 03:21:00;;;;;;;0.3;0.3;;;;;;;20.9;100.0;101400;;;;
2022/07/31 03:22:01;;;;;;;0.3;0.3;;;;;;;20.9;100.0;101390;;;;
2022/07/31 03:23:01;;;;;;;0.3;0.3;;;;;;;20.9;100.0;101390;;;;
2022/07/31 03:24:03;;;;;;;0.3;0.3;;;;;;;20.9;100.0;101380;;;;
2022/07/31 03:25:01;;;;;;;0.3;0.3;;;;;;;20.9;100.0;101380;;;;
2022/07/31 03:26:00;;;;;;;0.3;0.3;;;;;;;20.9;100.0;101380;;;;
2022/07/31 03:27:00;;;;;;;0.3;0.3;;;;;;;20.9;100.0;101380;;;;
2022/07/31 03:28:00;;;;;;;0.3;0.3;;;;;;;20.8;100.0;101380;;;;
2022/07/31 03:29:00;;;;;;;0.3;0.3;;;;;;;20.8;100.0;101380;;;;
2022/07/31 03:30:00;;;;;;;0.3;0.3;;;;;;;20.8;100.0;101380;;;;
2022/07/31 03:31:00;;;;;;;0.3;0.3;;;;;;;20.8;100.0;101380;;;;
2022/07/31 03:32:00;;;;;;;0.3;0.3;;;;;;;20.7;100.0;101380;;;;
2022/07/31 03:33:02;;;;;;;0.3;0.3;;;;;;;20.7;100.0;101380;;;;
2022/07/31 03:34:00;;;;;;;0.3;0.3;;;;;;;20.5;100.0;101380;;;;
2022/07/31 03:35:00;;;;;;;0.3;0.3;;;;;;;20.5;100.0;101380;;;;
2022/07/31 03:36:00;;;;;;;0.3;0.3;;;;;;;20.6;100.0;101380;;;;
2022/07/31 03:37:00;;;;;;;0.3;0.3;;;;;;;20.6;100.0;101380;;;;
2022/07/31 03:38:00;;;;;;;0.3;0.3;;;;;;;20.7;100.0;101380;;;;
2022/07/31 03:39:00;;;;;;;1.5;0.9;;;;;;;20.7;100.0;101380;;;;
2022/07/31 03:40:00;;;;;;;1.5;0.9;;;;;;;20.8;100.0;101380;;;;
2022/07/31 03:41:00;;;;;;;1.5;0.9;;;;;;;20.8;100.0;101380;;;;
2022/07/31 03:42:01;;;;;;;1.5;0.9;;;;;;;20.7;100.0;101380;;;;
2022/07/31 03:43:01;;;;;;;1.5;0.9;;;;;;;20.7;100.0;101380;;;;
2022/07/31 03:44:01;;;;;;;1.5;0.9;;;;;;;20.7;100.0;101380;;;;
2022/07/31 03:45:01;;;;;;;1.5;0.9;;;;;;;20.7;100.0;101380;;;;
2022/07/31 03:46:00;;;;;;;1.5;0.9;;;;;;;20.6;100.0;101380;;;;
2022/07/31 03:47:00;;;;;;;1.5;0.9;;;;;;;20.6;100.0;101380;;;;
2022/07/31 03:48:01;;;;;;;1.5;0.9;;;;;;;20.7;100.0;101390;;;;
2022/07/31 03:49:00;;;;;;;1.5;0.9;;;;;;;20.7;100.0;101390;;;;
2022/07/31 03:50:00;;;;;;;1.5;0.9;;;;;;;20.7;100.0;101390;;;;
2022/07/31 03:51:00;;;;;;;1.5;0.9;;;;;;;20.7;100.0;101390;;;;
2022/07/31 03:52:02;;;;;;;1.5;0.9;;;;;;;20.7;100.0;101390;;;;
2022/07/31 03:53:00;;;;;;;1.5;0.9;;;;;;;20.7;100.0;101390;;;;
2022/07/31 03:54:00;;;;;;;1.5;0.9;;;;;;;20.6;100.0;101380;;;;
2022/07/31 03:55:00;;;;;;;1.5;0.9;;;;;;;20.6;100.0;101380;;;;
2022/07/31 03:56:01;;;;;;;1.5;0.9;;;;;;;20.6;100.0;101380;;;;
2022/07/31 03:57:00;;;;;;;1.5;0.9;;;;;;;20.6;100.0;101380;;;;
2022/07/31 03:58:01;;;;;;;1.5;0.9;;;;;;;20.7;100.0;101370;;;;
2022/07/31 03:59:03;;;;;;;0.1;0.1;;;;;;;20.7;100.0;101370;;;;
2022/07/31 04:00:01;;;;;;;0.1;0.1;;;;;;;20.8;100.0;101370;;;;
2022/07/31 04:01:03;;;;;;;0.1;0.1;;;;;;;20.8;100.0;101370;;;;
2022/07/31 04:02:06;;;;;;;0.1;0.1;;;;;;;20.7;100.0;101370;;;;
2022/07/31 04:03:04;;;;;;;0.1;0.1;;;;;;;20.7;100.0;101370;;;;
2022/07/31 04:04:00;;;;;;;0.1;0.1;;;;;;;20.7;100.0;101380;;;;
2022/07/31 04:05:00;;;;;;;0.1;0.1;;;;;;;20.7;100.0;101380;;;;
2022/07/31 04:06:00;;;;;;;0.1;0.1;;;;;;;20.8;100.0;101380;;;;
2022/07/31 04:07:00;;;;;;;0.1;0.1;;;;;;;20.8;100.0;101380;;;;
2022/07/31 04:08:00;;;;;;;0.1;0.1;;;;;;;20.8;100.0;101380;;;;
2022/07/31 04:09:00;;;;;;;0.1;0.1;;;;;;;20.8;100.0;101380;;;;
2022/07/31 04:10:01;;;;;;;0.1;0.1;;;;;;;20.8;100.0;101380;;;;
2022/07/31 04:11:00;;;;;;;0.1;0.1;;;;;;;20.8;100.0;101380;;;;
2022/07/31 04:12:00;;;;;;;0.1;0.1;;;;;;;20.8;100.0;101380;;;;
2022/07/31 04:13:00;;;;;;;0.1;0.1;;;;;;;20.8;100.0;101380;;;;
2022/07/31 04:14:00;;;;;;;0.1;0.1;;;;;;;20.8;100.0;101390;;;;
2022/07/31 04:15:00;;;;;;;0.1;0.1;;;;;;;20.8;100.0;101390;;;;
2022/07/31 04:16:00;;;;;;;0.1;0.1;;;;;;;20.8;100.0;101390;;;;
2022/07/31 04:17:00;;;;;;;0.1;0.1;;;;;;;20.8;100.0;101390;;;;
2022/07/31 04:18:00;;;;;;;0.1;0.1;;;;;;;20.8;100.0;101400;;;;
2022/07/31 04:19:00;;;;;;;0.4;0.4;;;;;;;20.8;100.0;101400;;;;
2022/07/31 04:20:02;;;;;;;0.4;0.4;;;;;;;20.8;100.0;101400;;;;
2022/07/31 04:21:00;;;;;;;0.4;0.4;;;;;;;20.8;100.0;101400;;;;
2022/07/31 04:22:00;;;;;;;0.4;0.4;;;;;;;20.8;100.0;101400;;;;
2022/07/31 04:23:00;;;;;;;0.4;0.4;;;;;;;20.8;100.0;101400;;;;
2022/07/31 04:24:00;;;;;;;0.4;0.4;;;;;;;20.7;100.0;101390;;;;
2022/07/31 04:25:00;;;;;;;0.4;0.4;;;;;;;20.7;100.0;101390;;;;
2022/07/31 04:26:00;;;;;;;0.4;0.4;;;;;;;20.6;100.0;101390;;;;
2022/07/31 04:27:00;;;;;;;0.4;0.4;;;;;;;20.6;100.0;101390;;;;
2022/07/31 04:28:00;;;;;;;0.4;0.4;;;;;;;20.7;100.0;101400;;;;
2022/07/31 04:29:00;;;;;;;0.4;0.4;;;;;;;20.7;100.0;101400;;;;
2022/07/31 04:30:00;;;;;;;0.4;0.4;;;;;;;20.6;100.0;101390;;;;
2022/07/31 04:31:00;;;;;;;0.4;0.4;;;;;;;20.6;100.0;101390;;;;
2022/07/31 04:32:00;;;;;;;0.4;0.4;;;;;;;20.6;100.0;101390;;;;
2022/07/31 04:33:00;;;;;;;0.4;0.4;;;;;;;20.6;100.0;101390;;;;
2022/07/31 04:34:00;;;;;;;0.4;0.4;;;;;;;20.6;100.0;101400;;;;
2022/07/31 04:35:01;;;;;;;0.4;0.4;;;;;;;20.6;100.0;101400;;;;
2022/07/31 04:36:00;;;;;;;0.4;0.4;;;;;;;20.6;100.0;101400;;;;
2022/07/31 04:37:00;;;;;;;0.4;0.4;;;;;;;20.6;100.0;101400;;;;
2022/07/31 04:38:00;;;;;;;0.4;0.4;;;;;;;20.5;100.0;101390;;;;
2022/07/31 04:39:00;;;;;;;0.2;0.2;;;;;;;20.5;100.0;101390;;;;
2022/07/31 04:40:00;;;;;;;0.2;0.2;;;;;;;20.6;100.0;101390;;;;
2022/07/31 04:41:00;;;;;;;0.2;0.2;;;;;;;20.6;100.0;101390;;;;
2022/07/31 04:42:00;;;;;;;0.2;0.2;;;;;;;20.5;100.0;101390;;;;
2022/07/31 04:43:00;;;;;;;0.2;0.2;;;;;;;20.5;100.0;101390;;;;
2022/07/31 04:44:00;;;;;;;0.2;0.2;;;;;;;20.5;100.0;101400;;;;
2022/07/31 04:45:00;;;;;;;0.2;0.2;;;;;;;20.5;100.0;101400;;;;
2022/07/31 04:46:00;;;;;;;0.2;0.2;;;;;;;20.5;100.0;101400;;;;
2022/07/31 04:47:01;;;;;;;0.2;0.2;;;;;;;20.5;100.0;101400;;;;
2022/07/31 04:48:00;;;;;;;0.2;0.2;;;;;;;20.5;100.0;101400;;;;
2022/07/31 04:49:00;;;;;;;0.2;0.2;;;;;;;20.5;100.0;101400;;;;
2022/07/31 04:50:00;;;;;;;0.2;0.2;;;;;;;20.5;100.0;101410;;;;
2022/07/31 04:51:00;;;;;;;0.2;0.2;;;;;;;20.5;100.0;101410;;;;
2022/07/31 04:52:00;;;;;;;0.2;0.2;;;;;;;20.4;100.0;101400;;;;
2022/07/31 04:53:00;;;;;;;0.2;0.2;;;;;;;20.4;100.0;101400;;;;
2022/07/31 04:54:00;;;;;;;0.2;0.2;;;;;;;20.5;100.0;101400;;;;
2022/07/31 04:55:00;;;;;;;0.2;0.2;;;;;;;20.5;100.0;101400;;;;
2022/07/31 04:57:00;;;;;;;0.2;0.2;;;;;;;20.5;100.0;101400;;;;
2022/07/31 04:58:00;;;;;;;0.2;0.2;;;;;;;20.5;100.0;101400;;;;
2022/07/31 04:59:02;;;;;;;0.6;0.6;;;;;;;20.5;100.0;101400;;;;
2022/07/31 05:00:01;;;;;;;0.6;0.6;;;;;;;20.5;100.0;101400;;;;
2022/07/31 05:01:00;;;;;;;0.6;0.6;;;;;;;20.5;100.0;101400;;;;
2022/07/31 05:02:00;;;;;;;0.6;0.6;;;;;;;20.3;100.0;101400;;;;
2022/07/31 05:03:00;;;;;;;0.6;0.6;;;;;;;20.3;100.0;101400;;;;
2022/07/31 05:04:00;;;;;;;0.6;0.6;;;;;;;20.3;100.0;101400;;;;
2022/07/31 05:05:00;;;;;;;0.6;0.6;;;;;;;20.3;100.0;101400;;;;
2022/07/31 05:06:10;;;;;;;0.6;0.6;;;;;;;20.3;100.0;101390;;;;
2022/07/31 05:07:00;;;;;;;0.6;0.6;;;;;;;20.3;100.0;101390;;;;
2022/07/31 05:08:00;;;;;;;0.6;0.6;;;;;;;20.3;100.0;101390;;;;
2022/07/31 05:09:05;;;;;;;0.6;0.6;;;;;;;20.3;100.0;101390;;;;
2022/07/31 05:10:00;;;;;;;0.6;0.6;;;;;;;20.4;100.0;101390;;;;
2022/07/31 05:12:00;;;;;;;0.6;0.6;;;;;;;20.5;100.0;101390;;;;
2022/07/31 05:13:00;;;;;;;0.6;0.6;;;;;;;20.5;100.0;101390;;;;
2022/07/31 05:14:01;;;;;;;0.6;0.6;;;;;;;20.5;100.0;101390;;;;
2022/07/31 05:15:00;;;;;;;0.6;0.6;;;;;;;20.5;100.0;101390;;;;
2022/07/31 05:16:00;;;;;;;0.6;0.6;;;;;;;20.4;100.0;101390;;;;
2022/07/31 05:17:00;;;;;;;0.6;0.6;;;;;;;20.4;100.0;101390;;;;
2022/07/31 05:18:00;;;;;;;0.6;0.6;;;;;;;20.4;100.0;101390;;;;
2022/07/31 05:19:00;;;;;;;0.9;0.9;;;;;;;20.4;100.0;101390;;;;
2022/07/31 05:20:00;;;;;;;0.9;0.9;;;;;;;20.4;100.0;101390;;;;
2022/07/31 05:21:00;;;;;;;0.9;0.9;;;;;;;20.4;100.0;101390;;;;
2022/07/31 05:22:03;;;;;;;0.9;0.9;;;;;;;20.3;100.0;101390;;;;
2022/07/31 05:23:00;;;;;;;0.9;0.9;;;;;;;20.3;100.0;101390;;;;
2022/07/31 05:24:00;;;;;;;0.9;0.9;;;;;;;20.5;100.0;101390;;;;
2022/07/31 05:25:00;;;;;;;0.9;0.9;;;;;;;20.5;100.0;101390;;;;
2022/07/31 05:26:00;;;;;;;0.9;0.9;;;;;;;20.4;100.0;101390;;;;
2022/07/31 05:27:00;;;;;;;0.9;0.9;;;;;;;20.4;100.0;101390;;;;
2022/07/31 05:28:00;;;;;;;0.9;0.9;;;;;;;20.3;100.0;101390;;;;
2022/07/31 05:29:01;;;;;;;0.9;0.9;;;;;;;20.3;100.0;101390;;;;
2022/07/31 05:30:00;;;;;;;0.9;0.9;;;;;;;20.2;100.0;101390;;;;
2022/07/31 05:31:00;;;;;;;0.9;0.9;;;;;;;20.2;100.0;101390;;;;
2022/07/31 05:32:10;;;;;;;0.9;0.9;;;;;;;20.3;100.0;101390;;;;
2022/07/31 05:33:00;;;;;;;0.9;0.9;;;;;;;20.3;100.0;101390;;;;
2022/07/31 05:34:00;;;;;;;0.9;0.9;;;;;;;20.3;100.0;101380;;;;
2022/07/31 05:35:00;;;;;;;0.9;0.9;;;;;;;20.3;100.0;101380;;;;
2022/07/31 05:36:00;;;;;;;0.9;0.9;;;;;;;20.2;100.0;101380;;;;
2022/07/31 05:37:00;;;;;;;0.9;0.9;;;;;;;20.2;100.0;101380;;;;
2022/07/31 05:38:00;;;;;;;0.9;0.9;;;;;;;20.2;100.0;101380;;;;
2022/07/31 05:39:00;;;;;;;0.5;0.5;;;;;;;20.2;100.0;101380;;;;
2022/07/31 05:40:00;;;;;;;0.5;0.5;;;;;;;20.3;100.0;101370;;;;
2022/07/31 05:41:00;;;;;;;0.5;0.5;;;;;;;20.3;100.0;101370;;;;
2022/07/31 05:42:00;;;;;;;0.5;0.5;;;;;;;20.3;100.0;101370;;;;
2022/07/31 05:43:00;;;;;;;0.5;0.5;;;;;;;20.3;100.0;101370;;;;
2022/07/31 05:44:00;;;;;;;0.5;0.5;;;;;;;20.2;100.0;101360;;;;
2022/07/31 05:45:00;;;;;;;0.5;0.5;;;;;;;20.2;100.0;101360;;;;
2022/07/31 05:46:00;;;;;;;0.5;0.5;;;;;;;20.1;100.0;101370;;;;
2022/07/31 05:47:00;;;;;;;0.5;0.5;;;;;;;20.1;100.0;101370;;;;
2022/07/31 05:48:00;;;;;;;0.5;0.5;;;;;;;20.2;100.0;101370;;;;
2022/07/31 05:49:00;;;;;;;0.5;0.5;;;;;;;20.2;100.0;101370;;;;
2022/07/31 05:50:00;;;;;;;0.5;0.5;;;;;;;20.1;100.0;101370;;;;
2022/07/31 05:51:06;;;;;;;0.5;0.5;;;;;;;20.1;100.0;101370;;;;
2022/07/31 05:52:01;;;;;;;0.5;0.5;;;;;;;20.1;100.0;101380;;;;
2022/07/31 05:53:00;;;;;;;0.5;0.5;;;;;;;20.1;100.0;101380;;;;
2022/07/31 05:54:00;;;;;;;0.5;0.5;;;;;;;20.1;100.0;101380;;;;
2022/07/31 05:55:00;;;;;;;0.5;0.5;;;;;;;20.1;100.0;101380;;;;
2022/07/31 05:56:00;;;;;;;0.5;0.5;;;;;;;20.1;100.0;101380;;;;
2022/07/31 05:57:00;;;;;;;0.5;0.5;;;;;;;20.1;100.0;101380;;;;
2022/07/31 05:58:00;;;;;;;0.5;0.5;;;;;;;20.2;100.0;101380;;;;
2022/07/31 05:59:00;;;;;;;0.3;0.3;;;;;;;20.2;100.0;101380;;;;
2022/07/31 06:00:03;;;;;;;0.3;0.3;;;;;;;20.3;100.0;101380;;;;
2022/07/31 06:01:01;;;;;;;0.3;0.3;;;;;;;20.3;100.0;101380;;;;
2022/07/31 06:02:00;;;;;;;0.3;0.3;;;;;;;20.3;100.0;101380;;;;
2022/07/31 06:03:00;;;;;;;0.3;0.3;;;;;;;20.3;100.0;101380;;;;
2022/07/31 06:04:01;;;;;;;0.3;0.3;;;;;;;20.3;100.0;101380;;;;
2022/07/31 06:05:00;;;;;;;0.3;0.3;;;;;;;20.3;100.0;101380;;;;
2022/07/31 06:06:00;;;;;;;0.3;0.3;;;;;;;20.4;100.0;101380;;;;
2022/07/31 06:07:00;;;;;;;0.3;0.3;;;;;;;20.4;100.0;101380;;;;
2022/07/31 06:08:00;;;;;;;0.3;0.3;;;;;;;20.3;100.0;101390;;;;
2022/07/31 06:09:04;;;;;;;0.3;0.3;;;;;;;20.3;100.0;101390;;;;
2022/07/31 06:10:00;;;;;;;0.3;0.3;;;;;;;20.2;100.0;101390;;;;
2022/07/31 06:11:00;;;;;;;0.3;0.3;;;;;;;20.2;100.0;101390;;;;
2022/07/31 06:12:00;;;;;;;0.3;0.3;;;;;;;20.3;100.0;101390;;;;
2022/07/31 06:13:00;;;;;;;0.3;0.3;;;;;;;20.3;100.0;101390;;;;
2022/07/31 06:14:00;;;;;;;0.3;0.3;;;;;;;20.4;100.0;101390;;;;
2022/07/31 06:15:00;;;;;;;0.3;0.3;;;;;;;20.4;100.0;101390;;;;
2022/07/31 06:16:00;;;;;;;0.3;0.3;;;;;;;20.3;100.0;101400;;;;
2022/07/31 06:17:03;;;;;;;0.3;0.3;;;;;;;20.3;100.0;101400;;;;
2022/07/31 06:18:00;;;;;;;0.3;0.3;;;;;;;20.4;100.0;101400;;;;
2022/07/31 06:19:00;;;;;;;0.6;0.4;;;;;;;20.4;100.0;101400;;;;
2022/07/31 06:20:00;;;;;;;0.6;0.4;;;;;;;20.4;100.0;101400;;;;
2022/07/31 06:21:00;;;;;;;0.6;0.4;;;;;;;20.4;100.0;101400;;;;
2022/07/31 06:22:00;;;;;;;0.6;0.4;;;;;;;20.4;100.0;101390;;;;
2022/07/31 06:23:00;;;;;;;0.6;0.4;;;;;;;20.4;100.0;101390;;;;
2022/07/31 06:24:02;;;;;;;0.6;0.4;;;;;;;20.4;100.0;101400;;;;